createdAt,value
2018-06-18T00:00:39.862Z,19.50
2018-06-18T00:01:43.960Z,19.50
2018-06-18T00:02:48.048Z,19.50
2018-06-18T00:03:52.182Z,19.50
2018-06-18T00:04:56.265Z,19.50
2018-06-18T00:06:00.397Z,19.50
2018-06-18T00:07:04.528Z,19.50
2018-06-18T00:08:08.640Z,19.50
2018-06-18T00:09:14.163Z,19.50
2018-06-18T00:10:18.278Z,19.50
2018-06-18T00:11:22.398Z,19.50
2018-06-18T00:12:26.549Z,19.50
2018-06-18T00:13:30.647Z,19.50
2018-06-18T00:14:34.921Z,19.50
2018-06-18T00:15:39.006Z,19.50
2018-06-18T00:16:43.166Z,19.50
2018-06-18T00:17:47.203Z,19.40
2018-06-18T00:18:51.307Z,19.50
2018-06-18T00:19:55.577Z,19.50
2018-06-18T00:20:59.678Z,19.40
2018-06-18T00:22:03.852Z,19.40
2018-06-18T00:23:07.922Z,19.40
2018-06-18T00:25:15.772Z,19.40
2018-06-18T00:26:19.962Z,19.40
2018-06-18T00:27:24.084Z,19.40
2018-06-18T00:28:28.206Z,19.40
2018-06-18T00:31:39.786Z,19.40
2018-06-18T00:32:43.883Z,19.40
2018-06-18T00:33:48.026Z,19.40
2018-06-18T00:34:52.134Z,19.40
2018-06-18T00:35:56.571Z,19.40
2018-06-18T00:37:00.706Z,19.40
2018-06-18T00:38:05.062Z,19.40
2018-06-18T00:39:09.481Z,19.40
2018-06-18T00:40:13.538Z,19.40
2018-06-18T00:41:17.640Z,19.40
2018-06-18T00:42:21.805Z,19.40
2018-06-18T00:43:25.930Z,19.40
2018-06-18T00:44:30.184Z,19.40
2018-06-18T00:45:34.256Z,19.40
2018-06-18T00:46:38.370Z,19.40
2018-06-18T00:47:42.445Z,19.40
2018-06-18T00:48:46.542Z,19.40
2018-06-18T00:49:50.645Z,19.40
2018-06-18T00:50:54.866Z,19.50
2018-06-18T00:51:58.969Z,19.40
2018-06-18T00:53:03.128Z,19.50
2018-06-18T00:54:07.220Z,19.50
2018-06-18T00:55:18.057Z,19.50
2018-06-18T00:56:22.151Z,19.50
2018-06-18T00:57:26.173Z,19.50
2018-06-18T00:58:30.327Z,19.50
2018-06-18T00:59:34.451Z,19.50
2018-06-18T01:00:38.581Z,19.40
2018-06-18T01:01:42.701Z,19.50
2018-06-18T01:02:46.776Z,19.50
2018-06-18T01:03:51.101Z,19.40
2018-06-18T01:04:55.285Z,19.50
2018-06-18T01:05:59.458Z,19.50
2018-06-18T01:07:03.567Z,19.40
2018-06-18T01:08:07.610Z,19.40
2018-06-18T01:09:12.756Z,19.40
2018-06-18T01:10:17.020Z,19.40
2018-06-18T01:11:21.106Z,19.40
2018-06-18T01:12:25.211Z,19.40
2018-06-18T01:13:29.408Z,19.40
2018-06-18T01:14:33.549Z,19.40
2018-06-18T01:15:37.837Z,19.40
2018-06-18T01:16:41.962Z,19.40
2018-06-18T01:17:46.057Z,19.30
2018-06-18T01:19:53.895Z,19.40
2018-06-18T01:20:58.034Z,19.40
2018-06-18T01:22:02.197Z,19.40
2018-06-18T01:24:16.793Z,19.30
2018-06-18T01:25:20.902Z,19.30
2018-06-18T01:26:25.207Z,19.30
2018-06-18T01:27:29.383Z,19.30
2018-06-18T01:28:33.484Z,19.30
2018-06-18T01:29:37.581Z,19.30
2018-06-18T01:30:47.763Z,19.30
2018-06-18T01:31:57.991Z,19.30
2018-06-18T01:33:02.194Z,19.30
2018-06-18T01:34:11.186Z,19.30
2018-06-18T01:35:15.316Z,19.30
2018-06-18T01:36:19.365Z,19.30
2018-06-18T01:37:23.507Z,19.30
2018-06-18T01:38:27.770Z,19.30
2018-06-18T01:40:35.583Z,19.30
2018-06-18T01:41:39.729Z,19.30
2018-06-18T01:42:43.927Z,19.30
2018-06-18T01:43:48.052Z,19.30
2018-06-18T01:44:52.098Z,19.30
2018-06-18T01:45:56.165Z,19.30
2018-06-18T01:47:00.245Z,19.30
2018-06-18T01:48:04.352Z,19.30
2018-06-18T01:49:08.427Z,19.30
2018-06-18T01:50:12.587Z,19.30
2018-06-18T01:51:16.642Z,19.30
2018-06-18T01:52:20.747Z,19.30
2018-06-18T01:53:25.001Z,19.30
2018-06-18T01:54:29.158Z,19.30
2018-06-18T01:55:33.392Z,19.30
2018-06-18T01:56:37.523Z,19.30
2018-06-18T01:57:41.606Z,19.30
2018-06-18T01:58:45.757Z,19.30
2018-06-18T01:59:49.934Z,19.30
2018-06-18T02:01:57.941Z,19.30
2018-06-18T02:03:02.095Z,19.30
2018-06-18T02:04:06.283Z,19.30
2018-06-18T02:05:10.412Z,19.30
2018-06-18T02:06:14.550Z,19.30
2018-06-18T02:07:18.676Z,19.30
2018-06-18T02:08:22.813Z,19.30
2018-06-18T02:09:26.925Z,19.30
2018-06-18T02:10:31.061Z,19.30
2018-06-18T02:11:35.201Z,19.30
2018-06-18T02:12:39.324Z,19.30
2018-06-18T02:13:43.560Z,19.30
2018-06-18T02:14:47.669Z,19.30
2018-06-18T02:15:51.835Z,19.30
2018-06-18T02:16:55.909Z,19.30
2018-06-18T02:18:00.019Z,19.30
2018-06-18T02:19:04.129Z,19.30
2018-06-18T02:20:08.280Z,19.30
2018-06-18T02:22:16.293Z,19.30
2018-06-18T02:23:20.394Z,19.30
2018-06-18T02:24:24.473Z,19.30
2018-06-18T02:25:28.636Z,19.30
2018-06-18T02:26:32.771Z,19.30
2018-06-18T02:27:42.302Z,19.30
2018-06-18T02:28:51.864Z,19.30
2018-06-18T02:30:01.349Z,19.30
2018-06-18T02:31:10.712Z,19.30
2018-06-18T02:32:20.076Z,19.30
2018-06-18T02:33:29.454Z,19.40
2018-06-18T02:34:38.975Z,19.30
2018-06-18T02:35:48.382Z,19.30
2018-06-18T02:36:57.949Z,19.40
2018-06-18T02:38:07.524Z,19.30
2018-06-18T02:39:12.460Z,19.30
2018-06-18T02:40:21.987Z,19.30
2018-06-18T02:41:26.120Z,19.30
2018-06-18T02:42:30.292Z,19.30
2018-06-18T02:43:34.424Z,19.30
2018-06-18T02:44:38.534Z,19.30
2018-06-18T02:45:42.632Z,19.30
2018-06-18T02:46:46.753Z,19.30
2018-06-18T02:47:50.837Z,19.30
2018-06-18T02:48:55.039Z,19.30
2018-06-18T02:49:59.161Z,19.30
2018-06-18T02:51:03.397Z,19.30
2018-06-18T02:52:07.534Z,19.30
2018-06-18T02:53:11.685Z,19.30
2018-06-18T02:54:15.860Z,19.30
2018-06-18T02:55:20.025Z,19.30
2018-06-18T02:56:36.852Z,19.30
2018-06-18T02:57:41.014Z,19.30
2018-06-18T02:58:45.175Z,19.30
2018-06-18T02:59:49.284Z,19.30
2018-06-18T03:00:53.504Z,19.30
2018-06-18T03:01:57.609Z,19.30
2018-06-18T03:03:01.701Z,19.30
2018-06-18T03:04:06.148Z,19.30
2018-06-18T03:05:10.248Z,19.30
2018-06-18T03:06:14.454Z,19.30
2018-06-18T03:07:18.633Z,19.30
2018-06-18T03:08:22.758Z,19.30
2018-06-18T03:09:26.904Z,19.30
2018-06-18T03:10:31.050Z,19.30
2018-06-18T03:11:35.269Z,19.30
2018-06-18T03:12:39.396Z,19.30
2018-06-18T03:13:43.483Z,19.30
2018-06-18T03:14:47.586Z,19.30
2018-06-18T03:15:51.748Z,19.20
2018-06-18T03:16:55.905Z,19.20
2018-06-18T03:17:59.963Z,19.20
2018-06-18T03:19:09.436Z,19.20
2018-06-18T03:20:18.948Z,19.20
2018-06-18T03:21:28.394Z,19.20
2018-06-18T03:22:37.916Z,19.20
2018-06-18T03:23:47.444Z,19.20
2018-06-18T03:24:56.997Z,19.20
2018-06-18T03:26:06.625Z,19.20
2018-06-18T03:27:16.064Z,19.20
2018-06-18T03:28:25.445Z,19.20
2018-06-18T03:29:32.440Z,19.20
2018-06-18T03:30:36.520Z,19.20
2018-06-18T03:31:40.851Z,19.20
2018-06-18T03:32:45.067Z,19.20
2018-06-18T03:33:49.123Z,19.20
2018-06-18T03:34:53.298Z,19.20
2018-06-18T03:35:57.389Z,19.20
2018-06-18T03:37:01.942Z,19.20
2018-06-18T03:38:06.109Z,19.20
2018-06-18T03:39:12.531Z,19.20
2018-06-18T03:40:16.709Z,19.20
2018-06-18T03:41:20.775Z,19.20
2018-06-18T03:42:24.905Z,19.20
2018-06-18T03:43:28.966Z,19.20
2018-06-18T03:44:47.538Z,19.30
2018-06-18T03:45:51.686Z,19.20
2018-06-18T03:46:57.048Z,19.30
2018-06-18T03:48:07.278Z,19.30
2018-06-18T03:49:11.366Z,19.30
2018-06-18T03:50:15.511Z,19.30
2018-06-18T03:51:19.661Z,19.30
2018-06-18T03:52:23.758Z,19.30
2018-06-18T03:53:27.862Z,19.30
2018-06-18T03:54:32.033Z,19.30
2018-06-18T03:55:44.050Z,19.30
2018-06-18T03:56:48.309Z,19.30
2018-06-18T03:57:52.459Z,19.30
2018-06-18T03:58:56.553Z,19.30
2018-06-18T04:00:00.721Z,19.40
2018-06-18T04:01:26.375Z,19.40
2018-06-18T04:02:40.093Z,19.40
2018-06-18T04:03:50.187Z,19.40
2018-06-18T04:06:01.570Z,19.40
2018-06-18T04:07:10.948Z,19.50
2018-06-18T04:08:15.157Z,19.50
2018-06-18T04:09:24.558Z,19.50
2018-06-18T04:10:35.740Z,19.50
2018-06-18T04:11:45.355Z,19.50
2018-06-18T04:12:49.440Z,19.50
2018-06-18T04:13:53.551Z,19.50
2018-06-18T04:14:57.967Z,19.50
2018-06-18T04:16:02.133Z,19.50
2018-06-18T04:17:06.448Z,19.50
2018-06-18T04:18:10.584Z,19.50
2018-06-18T04:19:14.759Z,19.50
2018-06-18T04:20:18.894Z,19.50
2018-06-18T04:21:23.063Z,19.50
2018-06-18T04:22:27.312Z,19.50
2018-06-18T04:23:31.460Z,19.50
2018-06-18T04:24:35.580Z,19.60
2018-06-18T04:25:39.765Z,19.60
2018-06-18T04:26:43.880Z,19.60
2018-06-18T04:27:48.068Z,19.60
2018-06-18T04:28:52.158Z,19.60
2018-06-18T04:29:56.309Z,19.60
2018-06-18T04:31:00.499Z,19.60
2018-06-18T04:32:04.600Z,19.60
2018-06-18T04:33:09.167Z,19.60
2018-06-18T04:34:24.113Z,19.60
2018-06-18T04:35:28.294Z,19.60
2018-06-18T04:36:32.395Z,19.70
2018-06-18T04:37:36.758Z,19.70
2018-06-18T04:38:40.921Z,19.70
2018-06-18T04:39:45.092Z,19.70
2018-06-18T04:40:49.178Z,19.70
2018-06-18T04:41:58.735Z,19.70
2018-06-18T04:43:08.156Z,19.70
2018-06-18T04:44:17.711Z,19.70
2018-06-18T04:45:27.221Z,19.70
2018-06-18T04:46:36.790Z,19.70
2018-06-18T04:47:46.302Z,19.70
2018-06-18T04:48:55.925Z,19.70
2018-06-18T04:50:05.415Z,19.70
2018-06-18T04:51:09.594Z,19.70
2018-06-18T04:52:13.687Z,19.70
2018-06-18T04:53:17.808Z,19.70
2018-06-18T04:54:21.917Z,19.70
2018-06-18T04:55:25.977Z,19.70
2018-06-18T04:56:30.150Z,19.70
2018-06-18T04:57:34.254Z,19.70
2018-06-18T04:58:38.359Z,19.70
2018-06-18T04:59:46.806Z,19.70
2018-06-18T05:01:12.466Z,19.70
2018-06-18T05:02:16.491Z,19.80
2018-06-18T05:03:20.554Z,19.80
2018-06-18T05:04:24.705Z,19.80
2018-06-18T05:05:28.843Z,19.80
2018-06-18T05:06:33.064Z,19.80
2018-06-18T05:07:37.186Z,19.80
2018-06-18T05:10:26.408Z,19.90
2018-06-18T05:11:30.659Z,19.90
2018-06-18T05:12:34.853Z,19.90
2018-06-18T05:13:38.947Z,19.90
2018-06-18T05:14:43.062Z,19.90
2018-06-18T05:15:47.197Z,20.00
2018-06-18T05:16:51.303Z,20.00
2018-06-18T05:17:55.431Z,20.00
2018-06-18T05:18:59.513Z,20.00
2018-06-18T05:20:03.734Z,20.00
2018-06-18T05:22:11.635Z,20.10
2018-06-18T05:23:18.702Z,20.10
2018-06-18T05:24:22.841Z,20.10
2018-06-18T05:25:27.132Z,20.20
2018-06-18T05:26:31.966Z,20.20
2018-06-18T05:27:36.060Z,20.20
2018-06-18T05:28:40.204Z,20.20
2018-06-18T05:29:44.327Z,20.20
2018-06-18T05:30:48.482Z,20.30
2018-06-18T05:31:52.902Z,20.30
2018-06-18T05:32:57.142Z,20.30
2018-06-18T05:34:01.347Z,20.30
2018-06-18T05:35:06.492Z,20.40
2018-06-18T05:36:10.568Z,20.40
2018-06-18T05:37:17.821Z,20.40
2018-06-18T05:38:27.252Z,20.40
2018-06-18T05:39:31.387Z,20.40
2018-06-18T05:40:35.522Z,20.40
2018-06-18T05:41:39.642Z,20.40
2018-06-18T05:42:43.765Z,20.50
2018-06-18T05:43:47.873Z,20.50
2018-06-18T05:44:52.016Z,20.50
2018-06-18T05:46:59.780Z,20.50
2018-06-18T05:48:03.904Z,20.50
2018-06-18T05:49:08.047Z,20.50
2018-06-18T05:50:12.246Z,20.50
2018-06-18T05:51:18.801Z,20.50
2018-06-18T05:52:22.850Z,20.50
2018-06-18T05:53:27.084Z,20.40
2018-06-18T05:54:31.123Z,20.40
2018-06-18T05:55:35.299Z,20.40
2018-06-18T05:56:39.498Z,20.40
2018-06-18T05:57:43.670Z,20.40
2018-06-18T05:58:47.824Z,20.40
2018-06-18T05:59:52.034Z,20.40
2018-06-18T06:00:56.200Z,20.40
2018-06-18T06:02:00.263Z,20.40
2018-06-18T06:03:04.485Z,20.40
2018-06-18T06:04:08.540Z,20.40
2018-06-18T06:05:12.748Z,20.40
2018-06-18T06:06:16.919Z,20.40
2018-06-18T06:07:21.064Z,20.40
2018-06-18T06:08:25.218Z,20.40
2018-06-18T06:09:29.409Z,20.50
2018-06-18T06:10:33.804Z,20.50
2018-06-18T06:11:38.170Z,20.50
2018-06-18T06:12:42.435Z,20.50
2018-06-18T06:13:46.627Z,20.50
2018-06-18T06:14:50.792Z,20.50
2018-06-18T06:15:54.989Z,20.50
2018-06-18T06:16:59.244Z,20.60
2018-06-18T06:18:03.428Z,20.60
2018-06-18T06:19:07.478Z,20.60
2018-06-18T06:20:11.562Z,20.60
2018-06-18T06:21:16.216Z,20.60
2018-06-18T06:22:20.409Z,20.70
2018-06-18T06:23:24.534Z,20.70
2018-06-18T06:24:28.781Z,20.70
2018-06-18T06:25:33.022Z,20.70
2018-06-18T06:26:37.154Z,20.80
2018-06-18T06:27:41.234Z,20.80
2018-06-18T06:28:45.413Z,20.80
2018-06-18T06:29:49.502Z,20.90
2018-06-18T06:30:53.822Z,20.90
2018-06-18T06:31:57.940Z,20.90
2018-06-18T06:33:01.987Z,20.90
2018-06-18T06:34:06.123Z,21.00
2018-06-18T06:35:16.443Z,21.00
2018-06-18T06:36:23.211Z,21.00
2018-06-18T06:37:27.624Z,21.10
2018-06-18T06:38:31.706Z,21.10
2018-06-18T06:39:35.819Z,21.10
2018-06-18T06:40:40.344Z,21.10
2018-06-18T06:42:50.319Z,21.10
2018-06-18T06:43:55.009Z,21.20
2018-06-18T06:44:59.252Z,21.20
2018-06-18T06:46:03.373Z,21.20
2018-06-18T06:47:07.454Z,21.20
2018-06-18T06:48:11.582Z,21.20
2018-06-18T06:49:21.591Z,21.20
2018-06-18T06:50:25.708Z,21.20
2018-06-18T06:51:29.888Z,21.20
2018-06-18T06:52:33.986Z,21.20
2018-06-18T06:53:38.113Z,21.20
2018-06-18T06:54:42.201Z,21.30
2018-06-18T06:57:53.697Z,21.30
2018-06-18T06:58:57.883Z,21.30
2018-06-18T07:00:02.851Z,21.40
2018-06-18T07:01:06.994Z,21.40
2018-06-18T07:02:11.179Z,21.40
2018-06-18T07:03:15.280Z,21.50
2018-06-18T07:04:19.463Z,21.50
2018-06-18T07:05:23.610Z,21.50
2018-06-18T07:06:27.692Z,21.60
2018-06-18T07:07:31.921Z,21.60
2018-06-18T07:08:36.061Z,21.60
2018-06-18T07:09:40.115Z,21.60
2018-06-18T07:10:44.433Z,21.70
2018-06-18T07:11:48.635Z,21.70
2018-06-18T07:12:52.761Z,21.70
2018-06-18T07:13:56.926Z,21.70
2018-06-18T07:15:01.055Z,21.80
2018-06-18T07:16:05.320Z,21.80
2018-06-18T07:17:09.395Z,21.80
2018-06-18T07:18:13.530Z,21.80
2018-06-18T07:19:17.624Z,21.80
2018-06-18T07:20:21.871Z,21.90
2018-06-18T07:21:25.911Z,21.90
2018-06-18T07:23:33.742Z,21.90
2018-06-18T07:24:37.859Z,21.90
2018-06-18T07:25:42.044Z,21.90
2018-06-18T07:26:46.145Z,21.90
2018-06-18T07:27:50.287Z,22.00
2018-06-18T07:28:54.402Z,21.90
2018-06-18T07:31:02.182Z,22.00
2018-06-18T07:32:06.339Z,22.00
2018-06-18T07:33:10.425Z,22.00
2018-06-18T07:34:14.480Z,22.00
2018-06-18T07:35:18.594Z,22.00
2018-06-18T07:36:22.704Z,22.00
2018-06-18T07:37:26.764Z,22.00
2018-06-18T07:38:30.933Z,22.10
2018-06-18T07:39:34.957Z,22.10
2018-06-18T07:40:39.360Z,22.10
2018-06-18T07:41:43.451Z,22.00
2018-06-18T07:42:47.594Z,22.10
2018-06-18T07:43:51.797Z,22.10
2018-06-18T07:44:55.973Z,22.10
2018-06-18T07:46:00.244Z,22.10
2018-06-18T07:47:04.351Z,22.10
2018-06-18T07:48:08.529Z,22.10
2018-06-18T07:49:12.621Z,22.20
2018-06-18T07:50:16.864Z,22.20
2018-06-18T07:51:21.032Z,22.20
2018-06-18T07:52:25.093Z,22.30
2018-06-18T07:53:29.182Z,22.30
2018-06-18T07:54:33.311Z,22.30
2018-06-18T07:55:37.402Z,22.40
2018-06-18T07:56:41.542Z,22.40
2018-06-18T07:57:45.604Z,22.50
2018-06-18T07:59:53.443Z,22.60
2018-06-18T08:00:57.606Z,22.60
2018-06-18T08:02:01.694Z,22.70
2018-06-18T08:03:06.178Z,22.70
2018-06-18T08:04:10.318Z,22.80
2018-06-18T08:05:14.459Z,22.80
2018-06-18T08:06:18.500Z,22.90
2018-06-18T08:07:22.571Z,23.00
2018-06-18T08:08:26.714Z,23.00
2018-06-18T08:09:30.842Z,23.10
2018-06-18T08:10:34.970Z,23.10
2018-06-18T08:11:39.086Z,23.10
2018-06-18T08:12:43.255Z,23.20
2018-06-18T08:13:47.347Z,23.20
2018-06-18T08:14:51.440Z,23.20
2018-06-18T08:15:55.601Z,23.30
2018-06-18T08:16:59.746Z,23.30
2018-06-18T08:18:03.879Z,23.30
2018-06-18T08:20:15.068Z,23.40
2018-06-18T08:21:19.205Z,23.40
2018-06-18T08:22:24.074Z,23.40
2018-06-18T08:24:31.977Z,23.50
2018-06-18T08:25:36.073Z,23.50
2018-06-18T08:26:40.215Z,23.60
2018-06-18T08:27:44.298Z,23.60
2018-06-18T08:28:48.430Z,23.70
2018-06-18T08:29:52.512Z,23.70
2018-06-18T08:32:01.274Z,23.70
2018-06-18T08:33:05.738Z,23.80
2018-06-18T08:34:09.809Z,23.80
2018-06-18T08:35:13.977Z,23.80
2018-06-18T08:36:18.076Z,23.90
2018-06-18T08:38:32.384Z,23.90
2018-06-18T08:39:36.589Z,24.00
2018-06-18T08:40:40.737Z,24.00
2018-06-18T08:41:44.850Z,24.00
2018-06-18T08:42:49.046Z,24.10
2018-06-18T08:43:53.484Z,24.10
2018-06-18T08:44:57.629Z,24.10
2018-06-18T08:46:01.831Z,24.10
2018-06-18T08:47:06.116Z,24.20
2018-06-18T08:48:10.420Z,24.20
2018-06-18T08:49:14.643Z,24.20
2018-06-18T08:50:24.097Z,24.20
2018-06-18T08:51:33.640Z,24.30
2018-06-18T08:52:43.279Z,24.30
2018-06-18T08:53:52.865Z,24.30
2018-06-18T08:55:02.407Z,24.30
2018-06-18T08:56:11.933Z,24.30
2018-06-18T08:57:21.401Z,24.30
2018-06-18T08:58:30.897Z,24.30
2018-06-18T08:59:40.427Z,24.30
2018-06-18T09:00:49.981Z,24.30
2018-06-18T09:01:54.920Z,24.40
2018-06-18T09:03:04.542Z,24.40
2018-06-18T09:04:14.053Z,24.40
2018-06-18T09:06:26.280Z,24.50
2018-06-18T09:07:31.622Z,24.60
2018-06-18T09:08:39.920Z,24.60
2018-06-18T09:09:44.973Z,24.60
2018-06-18T09:10:49.289Z,24.70
2018-06-18T09:11:53.416Z,24.80
2018-06-18T09:12:57.598Z,24.80
2018-06-18T09:14:01.745Z,24.90
2018-06-18T09:15:06.338Z,24.90
2018-06-18T09:16:10.525Z,24.90
2018-06-18T09:17:14.659Z,25.00
2018-06-18T09:18:18.796Z,25.00
2018-06-18T09:19:22.937Z,25.00
2018-06-18T09:20:27.063Z,25.10
2018-06-18T09:21:31.239Z,25.10
2018-06-18T09:23:39.161Z,25.20
2018-06-18T09:24:43.277Z,25.30
2018-06-18T09:25:52.827Z,25.30
2018-06-18T09:27:02.371Z,25.40
2018-06-18T09:28:06.465Z,25.40
2018-06-18T09:29:10.542Z,25.50
2018-06-18T09:30:14.634Z,25.50
2018-06-18T09:31:18.889Z,25.60
2018-06-18T09:32:23.139Z,25.60
2018-06-18T09:33:27.103Z,25.70
2018-06-18T09:34:31.287Z,25.80
2018-06-18T09:35:35.433Z,25.80
2018-06-18T09:36:39.533Z,25.90
2018-06-18T09:37:43.660Z,26.00
2018-06-18T09:38:47.770Z,26.00
2018-06-18T09:39:51.936Z,26.00
2018-06-18T09:40:56.125Z,26.10
2018-06-18T09:42:00.221Z,26.20
2018-06-18T09:43:04.385Z,26.20
2018-06-18T09:45:12.321Z,26.30
2018-06-18T09:46:16.448Z,26.30
2018-06-18T09:47:20.601Z,26.30
2018-06-18T09:49:39.298Z,26.30
2018-06-18T09:50:49.277Z,26.30
2018-06-18T09:51:59.330Z,26.30
2018-06-18T09:53:09.281Z,26.40
2018-06-18T09:54:19.233Z,26.40
2018-06-18T09:56:26.596Z,26.40
2018-06-18T09:57:36.173Z,26.40
2018-06-18T09:58:45.604Z,26.50
2018-06-18T09:59:55.342Z,26.60
2018-06-18T10:01:13.969Z,26.60
2018-06-18T10:02:18.160Z,26.60
2018-06-18T10:03:23.281Z,26.70
2018-06-18T10:04:28.025Z,26.70
2018-06-18T10:05:32.362Z,26.80
2018-06-18T10:06:37.829Z,26.80
2018-06-18T10:07:41.976Z,26.90
2018-06-18T10:08:46.250Z,27.00
2018-06-18T10:09:50.380Z,27.10
2018-06-18T10:10:55.082Z,27.20
2018-06-18T10:11:59.292Z,27.30
2018-06-18T10:13:03.491Z,27.40
2018-06-18T10:14:09.469Z,27.50
2018-06-18T10:15:14.652Z,27.50
2018-06-18T10:16:18.797Z,27.60
2018-06-18T10:17:22.967Z,27.70
2018-06-18T10:18:27.199Z,27.70
2018-06-18T10:19:31.832Z,27.80
2018-06-18T10:20:36.156Z,27.80
2018-06-18T10:21:40.254Z,27.90
2018-06-18T10:22:44.427Z,28.00
2018-06-18T10:23:49.603Z,28.00
2018-06-18T10:24:53.759Z,28.00
2018-06-18T10:25:57.952Z,28.10
2018-06-18T10:27:02.080Z,28.10
2018-06-18T10:28:06.579Z,28.20
2018-06-18T10:29:11.324Z,28.30
2018-06-18T10:30:15.523Z,28.30
2018-06-18T10:31:20.416Z,28.30
2018-06-18T10:32:30.022Z,28.40
2018-06-18T10:33:39.581Z,28.40
2018-06-18T10:34:48.974Z,28.40
2018-06-18T10:37:07.760Z,28.50
2018-06-18T10:38:17.159Z,28.50
2018-06-18T10:39:26.620Z,28.50
2018-06-18T10:40:36.163Z,28.50
2018-06-18T10:41:45.654Z,28.50
2018-06-18T10:43:59.225Z,28.50
2018-06-18T10:45:03.755Z,28.50
2018-06-18T10:46:07.964Z,28.40
2018-06-18T10:47:12.562Z,28.40
2018-06-18T10:48:17.413Z,28.40
2018-06-18T10:49:21.599Z,28.40
2018-06-18T10:50:25.836Z,28.40
2018-06-18T10:51:30.044Z,28.40
2018-06-18T10:52:34.501Z,28.40
2018-06-18T10:53:38.549Z,28.40
2018-06-18T10:54:42.748Z,28.40
2018-06-18T10:55:47.005Z,28.40
2018-06-18T10:56:51.123Z,28.40
2018-06-18T10:57:55.236Z,28.40
2018-06-18T10:58:59.441Z,28.40
2018-06-18T11:00:05.445Z,28.40
2018-06-18T11:01:12.031Z,28.40
2018-06-18T11:02:16.174Z,28.40
2018-06-18T11:03:20.852Z,28.40
2018-06-18T11:04:28.961Z,28.40
2018-06-18T11:05:38.569Z,28.50
2018-06-18T11:06:42.694Z,28.50
2018-06-18T11:07:46.840Z,28.50
2018-06-18T11:08:51.000Z,28.50
2018-06-18T11:09:55.143Z,28.60
2018-06-18T11:10:59.245Z,28.60
2018-06-18T11:12:03.370Z,28.60
2018-06-18T11:13:07.616Z,28.70
2018-06-18T11:14:11.831Z,28.70
2018-06-18T11:15:16.377Z,28.80
2018-06-18T11:16:20.663Z,28.80
2018-06-18T11:17:30.185Z,28.90
2018-06-18T11:18:39.710Z,28.90
2018-06-18T11:19:49.338Z,29.00
2018-06-18T11:20:58.930Z,29.10
2018-06-18T11:23:14.747Z,29.20
2018-06-18T11:24:24.283Z,29.30
2018-06-18T11:26:41.265Z,29.30
2018-06-18T11:27:45.429Z,29.40
2018-06-18T11:28:49.633Z,29.50
2018-06-18T11:30:57.339Z,29.60
2018-06-18T11:32:01.441Z,29.60
2018-06-18T11:33:05.557Z,29.60
2018-06-18T11:34:09.675Z,29.60
2018-06-18T11:35:13.825Z,29.60
2018-06-18T11:36:17.979Z,29.60
2018-06-18T11:37:22.084Z,29.60
2018-06-18T11:38:26.191Z,29.60
2018-06-18T11:39:30.385Z,29.70
2018-06-18T11:40:34.598Z,29.70
2018-06-18T11:41:38.689Z,29.70
2018-06-18T11:42:42.827Z,29.80
2018-06-18T11:43:47.034Z,29.80
2018-06-18T11:44:51.089Z,29.90
2018-06-18T11:45:55.300Z,29.90
2018-06-18T11:46:59.447Z,29.90
2018-06-18T11:48:16.298Z,29.90
2018-06-18T11:49:20.416Z,30.00
2018-06-18T11:50:24.498Z,30.00
2018-06-18T11:51:28.620Z,30.00
2018-06-18T11:52:32.804Z,30.00
2018-06-18T11:53:36.931Z,30.00
2018-06-18T11:54:41.226Z,30.00
2018-06-18T11:55:45.388Z,30.00
2018-06-18T11:56:49.507Z,30.00
2018-06-18T11:57:53.605Z,30.00
2018-06-18T11:59:03.057Z,30.00
2018-06-18T12:00:12.682Z,30.00
2018-06-18T12:01:22.180Z,30.00
2018-06-18T12:02:31.868Z,30.00
2018-06-18T12:03:41.539Z,30.00
2018-06-18T12:04:51.042Z,30.00
2018-06-18T12:06:00.501Z,30.00
2018-06-18T12:08:07.614Z,30.00
2018-06-18T12:09:17.349Z,30.00
2018-06-18T12:11:25.310Z,30.00
2018-06-18T12:12:29.452Z,30.10
2018-06-18T12:14:37.338Z,30.10
2018-06-18T12:15:41.477Z,30.10
2018-06-18T12:16:45.709Z,30.10
2018-06-18T12:17:49.830Z,30.20
2018-06-18T12:18:54.075Z,30.10
2018-06-18T12:21:02.070Z,30.10
2018-06-18T12:22:06.241Z,30.10
2018-06-18T12:23:10.342Z,30.10
2018-06-18T12:24:14.717Z,30.10
2018-06-18T12:25:18.903Z,30.10
2018-06-18T12:27:29.300Z,30.10
2018-06-18T12:28:33.792Z,30.10
2018-06-18T12:29:37.965Z,30.10
2018-06-18T12:30:42.274Z,30.10
2018-06-18T12:31:47.011Z,30.10
2018-06-18T12:33:55.228Z,30.10
2018-06-18T12:34:59.301Z,30.10
2018-06-18T12:40:19.082Z,30.20
2018-06-18T12:41:23.326Z,30.20
2018-06-18T12:42:28.377Z,30.30
2018-06-18T12:43:36.032Z,30.30
2018-06-18T12:44:46.062Z,30.30
2018-06-18T12:45:58.226Z,30.40
2018-06-18T12:47:07.755Z,30.40
2018-06-18T12:48:17.565Z,30.40
2018-06-18T12:49:28.126Z,30.50
2018-06-18T12:50:37.608Z,30.50
2018-06-18T12:51:47.254Z,30.50
2018-06-18T12:52:56.762Z,30.50
2018-06-18T12:54:06.141Z,30.50
2018-06-18T12:55:15.741Z,30.50
2018-06-18T12:57:22.977Z,30.50
2018-06-18T12:58:27.184Z,30.50
2018-06-18T12:59:31.291Z,30.40
2018-06-18T13:00:35.490Z,30.40
2018-06-18T13:01:57.186Z,30.40
2018-06-18T13:03:05.987Z,30.40
2018-06-18T13:04:10.576Z,30.40
2018-06-18T13:06:21.347Z,30.40
2018-06-18T13:08:30.713Z,30.30
2018-06-18T13:09:34.851Z,30.30
2018-06-18T13:10:38.970Z,30.30
2018-06-18T13:11:43.125Z,30.40
2018-06-18T13:12:47.252Z,30.40
2018-06-18T13:13:51.573Z,30.40
2018-06-18T13:14:55.709Z,30.50
2018-06-18T13:16:00.800Z,30.60
2018-06-18T13:17:05.524Z,30.70
2018-06-18T13:18:09.817Z,30.80
2018-06-18T13:19:14.390Z,30.90
2018-06-18T13:20:18.902Z,31.00
2018-06-18T13:21:23.194Z,31.10
2018-06-18T13:22:27.409Z,31.10
2018-06-18T13:23:32.054Z,31.30
2018-06-18T13:24:36.187Z,31.30
2018-06-18T13:25:41.031Z,31.40
2018-06-18T13:26:45.281Z,31.50
2018-06-18T13:27:54.787Z,31.60
2018-06-18T13:28:59.079Z,31.60
2018-06-18T13:30:03.441Z,31.60
2018-06-18T13:31:08.298Z,31.60
2018-06-18T13:32:12.609Z,31.60
2018-06-18T13:33:16.888Z,31.60
2018-06-18T13:34:21.104Z,31.60
2018-06-18T13:35:26.344Z,31.60
2018-06-18T13:36:30.439Z,31.60
2018-06-18T13:37:40.090Z,31.50
2018-06-18T13:38:52.339Z,31.50
2018-06-18T13:40:01.923Z,31.40
2018-06-18T13:41:11.748Z,31.40
2018-06-18T13:42:22.624Z,31.40
2018-06-18T13:43:32.173Z,31.30
2018-06-18T13:44:41.891Z,31.30
2018-06-18T13:45:48.419Z,31.30
2018-06-18T13:46:58.192Z,31.20
2018-06-18T13:48:07.833Z,31.20
2018-06-18T13:49:11.970Z,31.10
2018-06-18T13:50:16.565Z,31.10
2018-06-18T13:51:20.695Z,31.00
2018-06-18T13:52:26.107Z,31.00
2018-06-18T13:53:30.484Z,31.00
2018-06-18T13:54:34.643Z,30.90
2018-06-18T13:55:39.211Z,30.90
2018-06-18T13:56:44.278Z,30.80
2018-06-18T13:57:49.181Z,30.80
2018-06-18T13:58:54.603Z,30.80
2018-06-18T14:01:02.694Z,30.70
2018-06-18T14:02:06.816Z,30.60
2018-06-18T14:03:11.499Z,30.60
2018-06-18T14:04:15.654Z,30.50
2018-06-18T14:05:20.631Z,30.50
2018-06-18T14:06:24.837Z,30.40
2018-06-18T14:07:28.992Z,30.40
2018-06-18T14:08:33.133Z,30.40
2018-06-18T14:09:37.277Z,30.40
2018-06-18T14:10:41.467Z,30.40
2018-06-18T14:11:45.734Z,30.40
2018-06-18T14:12:49.861Z,30.40
2018-06-18T14:13:54.735Z,30.40
2018-06-18T14:14:58.960Z,30.40
2018-06-18T14:16:03.590Z,30.40
2018-06-18T14:17:08.224Z,30.50
2018-06-18T14:19:21.559Z,30.60
2018-06-18T14:20:26.779Z,30.60
2018-06-18T14:21:30.971Z,30.60
2018-06-18T14:22:35.129Z,30.60
2018-06-18T14:23:39.310Z,30.60
2018-06-18T14:24:43.805Z,30.50
2018-06-18T14:25:47.929Z,30.50
2018-06-18T14:26:52.597Z,30.40
2018-06-18T14:27:56.775Z,30.40
2018-06-18T14:29:00.926Z,30.40
2018-06-18T14:30:10.716Z,30.30
2018-06-18T14:31:20.212Z,30.30
2018-06-18T14:32:29.879Z,30.30
2018-06-18T14:33:39.347Z,30.20
2018-06-18T14:34:48.963Z,30.20
2018-06-18T14:35:58.738Z,30.10
2018-06-18T14:37:08.168Z,30.10
2018-06-18T14:38:17.985Z,30.10
2018-06-18T14:39:28.081Z,30.00
2018-06-18T14:40:33.180Z,30.00
2018-06-18T14:41:37.519Z,30.00
2018-06-18T14:42:42.691Z,30.00
2018-06-18T14:43:46.859Z,30.00
2018-06-18T14:44:50.949Z,30.00
2018-06-18T14:45:55.511Z,30.00
2018-06-18T14:46:59.710Z,30.10
2018-06-18T14:48:04.786Z,30.00
2018-06-18T14:49:09.047Z,30.00
2018-06-18T14:51:17.312Z,30.00
2018-06-18T14:52:21.405Z,30.00
2018-06-18T14:53:25.525Z,30.00